sensor_id;sensor_type;location;lat;lon;timestamp;pressure;altitude;pressure_sealevel;temperature;humidity
9189;BME280;34313;50.780;6.084;2024-01-16T00:00:04;98846.19;;;1.02;100.00
9189;BME280;34313;50.780;6.084;2024-01-16T00:02:30;98850.56;;;1.02;100.00
9189;BME280;34313;50.780;6.084;2024-01-16T00:04:55;98849.84;;;0.97;100.00
9189;BME280;34313;50.780;6.084;2024-01-16T00:07:20;98850.75;;;0.94;100.00
9189;BME280;34313;50.780;6.084;2024-01-16T00:09:46;98857.16;;;0.82;100.00
9189;BME280;34313;50.780;6.084;2024-01-16T00:12:11;98863.56;;;0.70;100.00
9189;BME280;34313;50.780;6.084;2024-01-16T00:14:37;98860.38;;;0.61;100.00
9189;BME280;34313;50.780;6.084;2024-01-16T00:17:03;98857.88;;;0.56;100.00
9189;BME280;34313;50.780;6.084;2024-01-16T00:19:28;98858.72;;;0.58;100.00
9189;BME280;34313;50.780;6.084;2024-01-16T00:21:53;98858.22;;;0.44;100.00
9189;BME280;34313;50.780;6.084;2024-01-16T00:24:19;98859.94;;;0.45;100.00
9189;BME280;34313;50.780;6.084;2024-01-16T00:26:44;98860.81;;;0.44;100.00
9189;BME280;34313;50.780;6.084;2024-01-16T00:29:09;98857.28;;;0.48;100.00
9189;BME280;34313;50.780;6.084;2024-01-16T00:31:37;98849.69;;;0.40;100.00
9189;BME280;34313;50.780;6.084;2024-01-16T00:34:03;98858.28;;;0.42;100.00
9189;BME280;34313;50.780;6.084;2024-01-16T00:36:28;98866.94;;;0.41;100.00
9189;BME280;34313;50.780;6.084;2024-01-16T00:38:53;98865.28;;;0.38;100.00
9189;BME280;34313;50.780;6.084;2024-01-16T00:41:19;98869.44;;;0.46;100.00
9189;BME280;34313;50.780;6.084;2024-01-16T00:43:44;98870.31;;;0.45;100.00
9189;BME280;34313;50.780;6.084;2024-01-16T00:46:10;98871.91;;;0.49;100.00
9189;BME280;34313;50.780;6.084;2024-01-16T00:48:36;98877.72;;;0.59;100.00
9189;BME280;34313;50.780;6.084;2024-01-16T00:51:01;98875.78;;;0.67;100.00
9189;BME280;34313;50.780;6.084;2024-01-16T00:53:27;98886.06;;;0.68;100.00
9189;BME280;34313;50.780;6.084;2024-01-16T00:55:52;98879.25;;;0.66;100.00
9189;BME280;34313;50.780;6.084;2024-01-16T00:58:22;98887.75;;;0.71;100.00
9189;BME280;34313;50.780;6.084;2024-01-16T01:00:47;98889.47;;;0.72;100.00
9189;BME280;34313;50.780;6.084;2024-01-16T01:03:13;98898.81;;;0.78;100.00
9189;BME280;34313;50.780;6.084;2024-01-16T01:05:38;98902.31;;;0.75;100.00
9189;BME280;34313;50.780;6.084;2024-01-16T01:08:04;98899.47;;;0.84;100.00
9189;BME280;34313;50.780;6.084;2024-01-16T01:10:29;98903.72;;;0.87;100.00
9189;BME280;34313;50.780;6.084;2024-01-16T01:12:54;98900.28;;;0.86;100.00
9189;BME280;34313;50.780;6.084;2024-01-16T01:15:20;98900.25;;;0.88;100.00
9189;BME280;34313;50.780;6.084;2024-01-16T01:17:50;98902.13;;;0.83;100.00
9189;BME280;34313;50.780;6.084;2024-01-16T01:20:17;98906.47;;;0.81;100.00
9189;BME280;34313;50.780;6.084;2024-01-16T01:22:44;98901.13;;;0.87;100.00
9189;BME280;34313;50.780;6.084;2024-01-16T01:25:09;98902.00;;;0.86;100.00
9189;BME280;34313;50.780;6.084;2024-01-16T01:27:35;98902.84;;;0.88;100.00
9189;BME280;34313;50.780;6.084;2024-01-16T01:30:01;98908.25;;;0.79;100.00
9189;BME280;34313;50.780;6.084;2024-01-16T01:32:26;98909.13;;;0.79;100.00
9189;BME280;34313;50.780;6.084;2024-01-16T01:34:52;98910.88;;;0.79;100.00
9189;BME280;34313;50.780;6.084;2024-01-16T01:37:17;98902.00;;;0.86;100.00
9189;BME280;34313;50.780;6.084;2024-01-16T01:39:43;98909.91;;;0.83;100.00
9189;BME280;34313;50.780;6.084;2024-01-16T01:42:08;98914.94;;;0.87;100.00
9189;BME280;34313;50.780;6.084;2024-01-16T01:44:33;98915.75;;;0.89;100.00
9189;BME280;34313;50.780;6.084;2024-01-16T01:46:58;98910.47;;;0.92;100.00
9189;BME280;34313;50.780;6.084;2024-01-16T01:49:25;98921.81;;;0.90;100.00
9189;BME280;34313;50.780;6.084;2024-01-16T01:51:51;98925.19;;;0.92;100.00
9189;BME280;34313;50.780;6.084;2024-01-16T01:54:17;98922.50;;;0.97;100.00
9189;BME280;34313;50.780;6.084;2024-01-16T01:56:44;98924.25;;;0.94;100.00
9189;BME280;34313;50.780;6.084;2024-01-16T01:59:11;98921.75;;;0.91;100.00
9189;BME280;34313;50.780;6.084;2024-01-16T02:01:38;98922.53;;;0.95;100.00
9189;BME280;34313;50.780;6.084;2024-01-16T02:04:04;98921.66;;;0.94;100.00
9189;BME280;34313;50.780;6.084;2024-01-16T02:06:30;98923.38;;;0.96;100.00
9189;BME280;34313;50.780;6.084;2024-01-16T02:08:56;98929.25;;;1.02;100.00
9189;BME280;34313;50.780;6.084;2024-01-16T02:11:21;98912.91;;;0.99;100.00
9189;BME280;34313;50.780;6.084;2024-01-16T02:13:47;98918.13;;;0.97;100.00
9189;BME280;34313;50.780;6.084;2024-01-16T02:16:23;98915.59;;;0.96;100.00
9189;BME280;34313;50.780;6.084;2024-01-16T02:18:49;98924.94;;;1.01;100.00
9189;BME280;34313;50.780;6.084;2024-01-16T02:21:18;98922.19;;;1.07;100.00
9189;BME280;34313;50.780;6.084;2024-01-16T02:23:44;98918.84;;;1.02;100.00
9189;BME280;34313;50.780;6.084;2024-01-16T02:26:09;98919.94;;;0.95;100.00
9189;BME280;34313;50.780;6.084;2024-01-16T02:28:35;98916.25;;;1.02;100.00
9189;BME280;34313;50.780;6.084;2024-01-16T02:31:00;98920.66;;;1.00;100.00
9189;BME280;34313;50.780;6.084;2024-01-16T02:33:26;98919.75;;;1.01;100.00
9189;BME280;34313;50.780;6.084;2024-01-16T02:35:51;98915.63;;;0.94;100.00
9189;BME280;34313;50.780;6.084;2024-01-16T02:38:16;98925.94;;;0.97;100.00
9189;BME280;34313;50.780;6.084;2024-01-16T02:40:42;98921.63;;;0.96;100.00
9189;BME280;34313;50.780;6.084;2024-01-16T02:43:07;98917.41;;;0.92;100.00
9189;BME280;34313;50.780;6.084;2024-01-16T02:45:33;98906.47;;;0.81;100.00
9189;BME280;34313;50.780;6.084;2024-01-16T02:47:58;98928.81;;;0.86;100.00
9189;BME280;34313;50.780;6.084;2024-01-16T02:50:24;98925.25;;;0.90;100.00
9189;BME280;34313;50.780;6.084;2024-01-16T02:52:49;98922.88;;;0.83;100.00
9189;BME280;34313;50.780;6.084;2024-01-16T02:55:15;98920.28;;;0.83;100.00
9189;BME280;34313;50.780;6.084;2024-01-16T02:57:40;98917.16;;;0.70;100.00
9189;BME280;34313;50.780;6.084;2024-01-16T03:00:06;98911.81;;;0.76;100.00
9189;BME280;34313;50.780;6.084;2024-01-16T03:02:33;98899.03;;;0.68;100.00
9189;BME280;34313;50.780;6.084;2024-01-16T03:04:58;98910.06;;;0.77;100.00
9189;BME280;34313;50.780;6.084;2024-01-16T03:07:23;98911.00;;;0.74;100.00
9189;BME280;34313;50.780;6.084;2024-01-16T03:09:49;98901.50;;;0.73;100.00
9189;BME280;34313;50.780;6.084;2024-01-16T03:12:14;98904.94;;;0.73;100.00
9189;BME280;34313;50.780;6.084;2024-01-16T03:14:39;98904.41;;;0.62;100.00
9189;BME280;34313;50.780;6.084;2024-01-16T03:17:05;98901.75;;;0.65;100.00
9189;BME280;34313;50.780;6.084;2024-01-16T03:19:31;98899.19;;;0.64;100.00
9189;BME280;34313;50.780;6.084;2024-01-16T03:21:56;98901.81;;;0.62;100.00
9189;BME280;34313;50.780;6.084;2024-01-16T03:24:22;98907.00;;;0.62;100.00
9189;BME280;34313;50.780;6.084;2024-01-16T03:26:47;98911.31;;;0.63;100.00
9189;BME280;34313;50.780;6.084;2024-01-16T03:29:13;98900.72;;;0.71;100.00
9189;BME280;34313;50.780;6.084;2024-01-16T03:31:38;98903.25;;;0.72;100.00
9189;BME280;34313;50.780;6.084;2024-01-16T03:34:04;98904.94;;;0.73;100.00
9189;BME280;34313;50.780;6.084;2024-01-16T03:36:29;98900.63;;;0.74;100.00
9189;BME280;34313;50.780;6.084;2024-01-16T03:38:55;98898.00;;;0.75;100.00
9189;BME280;34313;50.780;6.084;2024-01-16T03:41:20;98900.72;;;0.71;100.00
9189;BME280;34313;50.780;6.084;2024-01-16T03:43:45;98896.22;;;0.78;100.00
9189;BME280;34313;50.780;6.084;2024-01-16T03:46:11;98892.81;;;0.75;100.00
9189;BME280;34313;50.780;6.084;2024-01-16T03:48:36;98891.03;;;0.78;100.00
9189;BME280;34313;50.780;6.084;2024-01-16T03:51:02;98892.81;;;0.75;100.00
9189;BME280;34313;50.780;6.084;2024-01-16T03:53:27;98893.66;;;0.76;100.00
9189;BME280;34313;50.780;6.084;2024-01-16T03:55:53;98890.28;;;0.72;100.00
9189;BME280;34313;50.780;6.084;2024-01-16T03:58:18;98890.25;;;0.74;100.00
9189;BME280;34313;50.780;6.084;2024-01-16T04:00:44;98894.72;;;0.69;100.00
9189;BME280;34313;50.780;6.084;2024-01-16T04:03:09;98891.13;;;0.73;100.00
9189;BME280;34313;50.780;6.084;2024-01-16T04:05:35;98885.16;;;0.71;100.00
9189;BME280;34313;50.780;6.084;2024-01-16T04:08:00;98876.75;;;0.61;100.00
9189;BME280;34313;50.780;6.084;2024-01-16T04:10:25;98873.97;;;0.69;100.00
9189;BME280;34313;50.780;6.084;2024-01-16T04:12:51;98881.00;;;0.65;100.00
9189;BME280;34313;50.780;6.084;2024-01-16T04:15:17;98884.34;;;0.69;100.00
9189;BME280;34313;50.780;6.084;2024-01-16T04:17:42;98881.88;;;0.64;100.00
9189;BME280;34313;50.780;6.084;2024-01-16T04:20:07;98883.53;;;0.67;100.00
9189;BME280;34313;50.780;6.084;2024-01-16T04:22:34;98891.38;;;0.65;100.00
9189;BME280;34313;50.780;6.084;2024-01-16T04:24:59;98875.69;;;0.68;100.00
9189;BME280;34313;50.780;6.084;2024-01-16T04:27:25;98886.78;;;0.73;100.00
9189;BME280;34313;50.780;6.084;2024-01-16T04:29:51;98879.94;;;0.72;100.00
9189;BME280;34313;50.780;6.084;2024-01-16T04:32:16;98875.56;;;0.73;100.00
9189;BME280;34313;50.780;6.084;2024-01-16T04:34:41;98884.03;;;0.80;100.00
9189;BME280;34313;50.780;6.084;2024-01-16T04:37:07;98884.13;;;0.77;100.00
9189;BME280;34313;50.780;6.084;2024-01-16T04:39:32;98875.31;;;0.82;100.00
9189;BME280;34313;50.780;6.084;2024-01-16T04:41:58;98878.00;;;0.79;100.00
9189;BME280;34313;50.780;6.084;2024-01-16T04:44:23;98878.84;;;0.80;100.00
9189;BME280;34313;50.780;6.084;2024-01-16T04:46:48;98874.69;;;0.74;100.00
9189;BME280;34313;50.780;6.084;2024-01-16T04:49:14;98878.97;;;0.75;100.00
9189;BME280;34313;50.780;6.084;2024-01-16T04:51:39;98880.66;;;0.78;100.00
9189;BME280;34313;50.780;6.084;2024-01-16T04:54:04;98873.09;;;0.68;100.00
9189;BME280;34313;50.780;6.084;2024-01-16T04:56:30;98883.44;;;0.70;100.00
9189;BME280;34313;50.780;6.084;2024-01-16T04:58:55;98886.22;;;0.64;100.00
9189;BME280;34313;50.780;6.084;2024-01-16T05:01:20;98884.50;;;0.63;100.00
9189;BME280;34313;50.780;6.084;2024-01-16T05:03:46;98880.88;;;0.68;100.00
9189;BME280;34313;50.780;6.084;2024-01-16T05:06:16;98879.25;;;0.66;100.00
9189;BME280;34313;50.780;6.084;2024-01-16T05:08:42;98869.91;;;0.60;100.00
9189;BME280;34313;50.780;6.084;2024-01-16T05:11:07;98874.28;;;0.58;100.00
9189;BME280;34313;50.780;6.084;2024-01-16T05:13:33;98874.16;;;0.61;100.00
9189;BME280;34313;50.780;6.084;2024-01-16T05:15:58;98867.25;;;0.62;100.00
9189;BME280;34313;50.780;6.084;2024-01-16T05:18:23;98867.22;;;0.63;100.00
9189;BME280;34313;50.780;6.084;2024-01-16T05:20:49;98863.78;;;0.61;100.00
9189;BME280;34313;50.780;6.084;2024-01-16T05:23:14;98859.53;;;0.60;100.00
9189;BME280;34313;50.780;6.084;2024-01-16T05:25:39;98858.78;;;0.55;100.00
9189;BME280;34313;50.780;6.084;2024-01-16T05:28:05;98856.16;;;0.56;100.00
9189;BME280;34313;50.780;6.084;2024-01-16T05:30:30;98853.63;;;0.55;100.00
9189;BME280;34313;50.780;6.084;2024-01-16T05:32:55;98853.03;;;0.44;100.00
9189;BME280;34313;50.780;6.084;2024-01-16T05:35:21;98855.78;;;0.39;100.00
9189;BME280;34313;50.780;6.084;2024-01-16T05:37:46;98854.97;;;0.37;100.00
9189;BME280;34313;50.780;6.084;2024-01-16T05:40:12;98844.69;;;0.34;100.00
9189;BME280;34313;50.780;6.084;2024-01-16T05:42:38;98848.34;;;0.27;100.00
9189;BME280;34313;50.780;6.084;2024-01-16T05:45:04;98840.94;;;0.13;100.00
9189;BME280;34313;50.780;6.084;2024-01-16T05:47:29;98840.34;;;0.02;100.00
9189;BME280;34313;50.780;6.084;2024-01-16T05:49:55;98849.34;;;-0.12;100.00
9189;BME280;34313;50.780;6.084;2024-01-16T05:52:21;98846.16;;;-0.23;100.00
9189;BME280;34313;50.780;6.084;2024-01-16T05:54:47;98852.38;;;-0.30;100.00
9189;BME280;34313;50.780;6.084;2024-01-16T05:57:12;98854.31;;;-0.39;100.00
9189;BME280;34313;50.780;6.084;2024-01-16T05:59:37;98856.28;;;-0.50;100.00
9189;BME280;34313;50.780;6.084;2024-01-16T06:02:03;98853.97;;;-0.61;100.00
9189;BME280;34313;50.780;6.084;2024-01-16T06:04:28;98852.34;;;-0.65;100.00
9189;BME280;34313;50.780;6.084;2024-01-16T06:06:53;98857.84;;;-0.79;100.00
9189;BME280;34313;50.780;6.084;2024-01-16T06:09:19;98850.25;;;-0.88;100.00
9189;BME280;34313;50.780;6.084;2024-01-16T06:11:44;98848.84;;;-1.01;100.00
9189;BME280;34313;50.780;6.084;2024-01-16T06:14:09;98848.09;;;-1.06;100.00
9189;BME280;34313;50.780;6.084;2024-01-16T06:16:35;98848.97;;;-1.07;100.00
9189;BME280;34313;50.780;6.084;2024-01-16T06:19:01;98849.00;;;-1.09;100.00
9189;BME280;34313;50.780;6.084;2024-01-16T06:21:26;98850.13;;;-1.21;100.00
9189;BME280;34313;50.780;6.084;2024-01-16T06:23:52;98851.13;;;-1.28;100.00
9189;BME280;34313;50.780;6.084;2024-01-16T06:26:17;98851.41;;;-1.42;100.00
9189;BME280;34313;50.780;6.084;2024-01-16T06:28:43;98856.63;;;-1.43;100.00
9189;BME280;34313;50.780;6.084;2024-01-16T06:31:09;98855.94;;;-1.53;100.00
9189;BME280;34313;50.780;6.084;2024-01-16T06:33:34;98866.28;;;-1.53;100.00
9189;BME280;34313;50.780;6.084;2024-01-16T06:36:00;98866.28;;;-1.53;100.00
9189;BME280;34313;50.780;6.084;2024-01-16T06:38:26;98863.09;;;-1.67;100.00
9189;BME280;34313;50.780;6.084;2024-01-16T06:40:51;98861.44;;;-1.70;100.00
9189;BME280;34313;50.780;6.084;2024-01-16T06:43:16;98868.44;;;-1.75;100.00
9189;BME280;34313;50.780;6.084;2024-01-16T06:45:42;98869.34;;;-1.79;100.00
9189;BME280;34313;50.780;6.084;2024-01-16T06:48:08;98866.75;;;-1.79;100.00
9189;BME280;34313;50.780;6.084;2024-01-16T06:50:33;98876.41;;;-1.87;100.00
9189;BME280;34313;50.780;6.084;2024-01-16T06:52:58;98868.78;;;-1.95;100.00
9189;BME280;34313;50.780;6.084;2024-01-16T06:55:23;98871.25;;;-1.87;100.00
9189;BME280;34313;50.780;6.084;2024-01-16T06:57:49;98866.16;;;-1.94;100.00
9189;BME280;34313;50.780;6.084;2024-01-16T07:00:15;98872.13;;;-1.90;100.00
9189;BME280;34313;50.780;6.084;2024-01-16T07:02:40;98876.53;;;-1.97;100.00
9189;BME280;34313;50.780;6.084;2024-01-16T07:05:11;98874.84;;;-1.98;100.00
9189;BME280;34313;50.780;6.084;2024-01-16T07:07:36;98870.38;;;-1.90;100.00
9189;BME280;34313;50.780;6.084;2024-01-16T07:10:02;98876.31;;;-1.84;100.00
9189;BME280;34313;50.780;6.084;2024-01-16T07:12:27;98882.47;;;-1.90;100.00
9189;BME280;34313;50.780;6.084;2024-01-16T07:14:53;98875.69;;;-1.96;100.00
9189;BME280;34313;50.780;6.084;2024-01-16T07:17:19;98870.50;;;-1.96;100.00
9189;BME280;34313;50.780;6.084;2024-01-16T07:19:44;98876.53;;;-1.97;100.00
9189;BME280;34313;50.780;6.084;2024-01-16T07:22:09;98880.06;;;-2.01;100.00
9189;BME280;34313;50.780;6.084;2024-01-16T07:24:35;98874.91;;;-2.01;100.00
9189;BME280;34313;50.780;6.084;2024-01-16T07:27:00;98883.38;;;-1.93;100.00
9189;BME280;34313;50.780;6.084;2024-01-16T07:29:26;98877.31;;;-1.92;100.00
9189;BME280;34313;50.780;6.084;2024-01-16T07:31:51;98893.63;;;-1.90;100.00
9189;BME280;34313;50.780;6.084;2024-01-16T07:34:17;98894.53;;;-1.91;100.00
9189;BME280;34313;50.780;6.084;2024-01-16T07:36:47;98897.00;;;-1.86;100.00
9189;BME280;34313;50.780;6.084;2024-01-16T07:39:12;98890.16;;;-1.87;100.00
9189;BME280;34313;50.780;6.084;2024-01-16T07:41:37;98887.56;;;-1.87;100.00
9189;BME280;34313;50.780;6.084;2024-01-16T07:44:03;98880.69;;;-1.88;100.00
9189;BME280;34313;50.780;6.084;2024-01-16T07:46:28;98892.63;;;-1.82;100.00
9189;BME280;34313;50.780;6.084;2024-01-16T07:48:53;98890.00;;;-1.78;100.00
9189;BME280;34313;50.780;6.084;2024-01-16T07:51:19;98884.69;;;-1.70;100.00
9189;BME280;34313;50.780;6.084;2024-01-16T07:53:45;98884.63;;;-1.67;100.00
9189;BME280;34313;50.780;6.084;2024-01-16T07:56:10;98887.34;;;-1.75;100.00
9189;BME280;34313;50.780;6.084;2024-01-16T07:58:36;98884.56;;;-1.64;100.00
9189;BME280;34313;50.780;6.084;2024-01-16T08:01:02;98886.19;;;-1.60;100.00
9189;BME280;34313;50.780;6.084;2024-01-16T08:03:27;98888.84;;;-1.61;100.00
9189;BME280;34313;50.780;6.084;2024-01-16T08:05:53;98889.69;;;-1.61;100.00
9189;BME280;34313;50.780;6.084;2024-01-16T08:08:18;98897.31;;;-1.55;100.00
9189;BME280;34313;50.780;6.084;2024-01-16T08:10:44;98889.44;;;-1.48;100.00
9189;BME280;34313;50.780;6.084;2024-01-16T08:13:09;98885.00;;;-1.40;100.00
9189;BME280;34313;50.780;6.084;2024-01-16T08:15:34;98889.88;;;-1.26;100.00
9189;BME280;34313;50.780;6.084;2024-01-16T08:18:00;98893.84;;;-1.10;100.00
9189;BME280;34313;50.780;6.084;2024-01-16T08:20:25;98898.81;;;-0.99;100.00
9189;BME280;34313;50.780;6.084;2024-01-16T08:22:51;98906.22;;;-0.82;100.00
9189;BME280;34313;50.780;6.084;2024-01-16T08:25:16;98907.66;;;-0.70;100.00
9189;BME280;34313;50.780;6.084;2024-01-16T08:27:42;98911.88;;;-0.65;100.00
9189;BME280;34313;50.780;6.084;2024-01-16T08:30:09;98907.38;;;-0.58;100.00
9189;BME280;34313;50.780;6.084;2024-01-16T08:32:35;98911.41;;;-0.45;100.00
9189;BME280;34313;50.780;6.084;2024-01-16T08:35:00;98901.75;;;-0.38;99.40
9189;BME280;34313;50.780;6.084;2024-01-16T08:37:25;98911.06;;;-0.29;98.66
9189;BME280;34313;50.780;6.084;2024-01-16T08:39:51;98908.22;;;-0.18;97.82
9189;BME280;34313;50.780;6.084;2024-01-16T08:42:16;98902.72;;;-0.06;97.62
9189;BME280;34313;50.780;6.084;2024-01-16T08:44:42;98904.28;;;0.01;95.56
9189;BME280;34313;50.780;6.084;2024-01-16T08:47:08;98903.78;;;0.21;95.27
9189;BME280;34313;50.780;6.084;2024-01-16T08:49:34;98891.94;;;0.44;93.94
9189;BME280;34313;50.780;6.084;2024-01-16T08:52:00;98894.56;;;0.73;92.40
9189;BME280;34313;50.780;6.084;2024-01-16T08:54:25;98894.69;;;1.00;90.59
9189;BME280;34313;50.780;6.084;2024-01-16T08:56:54;98901.28;;;1.40;88.60
9189;BME280;34313;50.780;6.084;2024-01-16T08:59:19;98897.94;;;1.65;86.82
9189;BME280;34313;50.780;6.084;2024-01-16T09:01:44;98900.84;;;1.82;85.34
9189;BME280;34313;50.780;6.084;2024-01-16T09:04:10;98889.22;;;1.93;84.14
9189;BME280;34313;50.780;6.084;2024-01-16T09:06:35;98903.72;;;2.00;83.02
9189;BME280;34313;50.780;6.084;2024-01-16T09:09:01;98905.16;;;2.08;82.09
9189;BME280;34313;50.780;6.084;2024-01-16T09:11:27;98906.97;;;2.06;80.57
9189;BME280;34313;50.780;6.084;2024-01-16T09:13:52;98911.38;;;2.04;81.75
9189;BME280;34313;50.780;6.084;2024-01-16T09:16:18;98909.84;;;1.99;81.40
9189;BME280;34313;50.780;6.084;2024-01-16T09:18:43;98914.34;;;1.94;81.98
9189;BME280;34313;50.780;6.084;2024-01-16T09:21:09;98912.75;;;1.89;81.42
9189;BME280;34313;50.780;6.084;2024-01-16T09:23:34;98912.63;;;1.93;80.76
9189;BME280;34313;50.780;6.084;2024-01-16T09:26:00;98911.34;;;2.06;80.42
9189;BME280;34313;50.780;6.084;2024-01-16T09:28:25;98907.53;;;2.16;80.50
9189;BME280;34313;50.780;6.084;2024-01-16T09:30:52;98900.84;;;2.59;78.82
9189;BME280;34313;50.780;6.084;2024-01-16T09:33:17;98899.00;;;2.87;77.67
9189;BME280;34313;50.780;6.084;2024-01-16T09:35:42;98903.25;;;3.13;76.36
9189;BME280;34313;50.780;6.084;2024-01-16T09:38:08;98897.88;;;3.17;75.22
9189;BME280;34313;50.780;6.084;2024-01-16T09:40:33;98893.00;;;3.32;74.66
9189;BME280;34313;50.780;6.084;2024-01-16T09:43:00;98898.44;;;3.48;73.59
9189;BME280;34313;50.780;6.084;2024-01-16T09:45:26;98899.72;;;3.59;72.76
9189;BME280;34313;50.780;6.084;2024-01-16T09:47:53;98888.56;;;3.78;72.16
9189;BME280;34313;50.780;6.084;2024-01-16T09:50:19;98869.47;;;3.77;71.71
9189;BME280;34313;50.780;6.084;2024-01-16T09:52:47;98877.47;;;3.73;71.06
9189;BME280;34313;50.780;6.084;2024-01-16T09:55:14;98870.69;;;3.69;70.95
9189;BME280;34313;50.780;6.084;2024-01-16T09:57:40;98867.03;;;3.73;71.04
9189;BME280;34313;50.780;6.084;2024-01-16T10:00:10;98866.75;;;3.81;70.87
9189;BME280;34313;50.780;6.084;2024-01-16T10:02:39;98867.47;;;3.84;70.31
9189;BME280;34313;50.780;6.084;2024-01-16T10:05:07;98859.16;;;3.74;70.08
9189;BME280;34313;50.780;6.084;2024-01-16T10:07:33;98869.00;;;3.68;69.77
9189;BME280;34313;50.780;6.084;2024-01-16T10:10:00;98864.69;;;3.67;70.01
9189;BME280;34313;50.780;6.084;2024-01-16T10:12:25;98863.38;;;3.56;69.77
9189;BME280;34313;50.780;6.084;2024-01-16T10:14:50;98861.66;;;3.77;69.78
9189;BME280;34313;50.780;6.084;2024-01-16T10:17:17;98860.59;;;4.04;69.19
9189;BME280;34313;50.780;6.084;2024-01-16T10:19:48;98846.66;;;4.03;68.04
9189;BME280;34313;50.780;6.084;2024-01-16T10:22:19;98848.13;;;4.10;68.39
9189;BME280;34313;50.780;6.084;2024-01-16T10:24:46;98850.03;;;4.07;68.08
9189;BME280;34313;50.780;6.084;2024-01-16T10:27:15;98836.13;;;4.06;67.86
9189;BME280;34313;50.780;6.084;2024-01-16T10:29:54;98837.78;;;4.09;67.53
9189;BME280;34313;50.780;6.084;2024-01-16T10:32:30;98825.75;;;4.05;67.63
9189;BME280;34313;50.780;6.084;2024-01-16T10:37:40;98831.22;;;3.78;67.64
9189;BME280;34313;50.780;6.084;2024-01-16T10:40:07;98832.47;;;3.47;68.34
9189;BME280;34313;50.780;6.084;2024-01-16T10:42:33;98847.72;;;3.34;68.23
9189;BME280;34313;50.780;6.084;2024-01-16T10:44:58;98841.38;;;3.41;68.73
9189;BME280;34313;50.780;6.084;2024-01-16T10:47:23;98840.94;;;3.52;68.78
9189;BME280;34313;50.780;6.084;2024-01-16T10:49:49;98847.84;;;3.53;67.74
9189;BME280;34313;50.780;6.084;2024-01-16T10:52:14;98839.09;;;3.56;67.61
9189;BME280;34313;50.780;6.084;2024-01-16T10:54:43;98838.03;;;3.60;70.36
9189;BME280;34313;50.780;6.084;2024-01-16T10:57:14;98828.44;;;3.60;69.53
9189;BME280;34313;50.780;6.084;2024-01-16T10:59:50;98837.56;;;3.28;68.72
9189;BME280;34313;50.780;6.084;2024-01-16T11:02:20;98831.00;;;3.18;68.28
9189;BME280;34313;50.780;6.084;2024-01-16T11:04:47;98843.09;;;3.19;67.95
9189;BME280;34313;50.780;6.084;2024-01-16T11:07:14;98828.41;;;3.18;68.58
9189;BME280;34313;50.780;6.084;2024-01-16T11:09:39;98823.56;;;3.09;68.75
9189;BME280;34313;50.780;6.084;2024-01-16T11:12:06;98824.16;;;2.93;68.65
9189;BME280;34313;50.780;6.084;2024-01-16T11:14:34;98826.81;;;2.92;68.57
9189;BME280;34313;50.780;6.084;2024-01-16T11:17:02;98824.78;;;2.76;69.71
9189;BME280;34313;50.780;6.084;2024-01-16T11:19:29;98836.75;;;2.57;69.72
9189;BME280;34313;50.780;6.084;2024-01-16T11:21:54;98832.69;;;2.50;69.63
9189;BME280;34313;50.780;6.084;2024-01-16T11:24:21;98837.53;;;2.35;70.61
9189;BME280;34313;50.780;6.084;2024-01-16T11:26:46;98844.72;;;2.29;70.67
9189;BME280;34313;50.780;6.084;2024-01-16T11:31:57;98835.56;;;2.17;71.53
9189;BME280;34313;50.780;6.084;2024-01-16T11:37:07;98828.69;;;2.16;72.19
9189;BME280;34313;50.780;6.084;2024-01-16T11:39:33;98822.53;;;2.18;72.38
9189;BME280;34313;50.780;6.084;2024-01-16T11:41:59;98817.31;;;2.18;71.63
9189;BME280;34313;50.780;6.084;2024-01-16T11:44:46;98818.34;;;2.14;71.82
9189;BME280;34313;50.780;6.084;2024-01-16T11:47:24;98811.91;;;1.99;71.61
9189;BME280;34313;50.780;6.084;2024-01-16T11:50:10;98811.53;;;2.10;72.97
9189;BME280;34313;50.780;6.084;2024-01-16T11:55:27;98808.38;;;2.02;72.54
9189;BME280;34313;50.780;6.084;2024-01-16T11:58:17;98813.69;;;1.99;72.30
9189;BME280;34313;50.780;6.084;2024-01-16T12:00:49;98795.84;;;1.88;72.57
9189;BME280;34313;50.780;6.084;2024-01-16T12:03:19;98811.81;;;2.02;72.73
9189;BME280;34313;50.780;6.084;2024-01-16T12:05:57;98804.34;;;1.93;72.55
9189;BME280;34313;50.780;6.084;2024-01-16T12:08:23;98800.72;;;1.72;72.84
9189;BME280;34313;50.780;6.084;2024-01-16T12:10:49;98800.69;;;1.74;72.92
9189;BME280;34313;50.780;6.084;2024-01-16T12:13:15;98791.78;;;1.81;72.71
9189;BME280;34313;50.780;6.084;2024-01-16T12:15:41;98786.41;;;1.85;72.86
9189;BME280;34313;50.780;6.084;2024-01-16T12:18:07;98780.72;;;1.74;73.90
9189;BME280;34313;50.780;6.084;2024-01-16T12:20:34;98773.47;;;1.84;73.35
9189;BME280;34313;50.780;6.084;2024-01-16T12:23:03;98775.91;;;1.88;73.33
9189;BME280;34313;50.780;6.084;2024-01-16T12:25:30;98777.38;;;1.96;73.18
9189;BME280;34313;50.780;6.084;2024-01-16T12:30:23;98766.31;;;1.91;72.83
9189;BME280;34313;50.780;6.084;2024-01-16T12:32:49;98769.69;;;1.93;73.14
9189;BME280;34313;50.780;6.084;2024-01-16T12:35:20;98759.63;;;1.83;73.37
9189;BME280;34313;50.780;6.084;2024-01-16T12:37:58;98745.75;;;1.84;73.82
9189;BME280;34313;50.780;6.084;2024-01-16T12:40:23;98744.41;;;1.73;74.01
9189;BME280;34313;50.780;6.084;2024-01-16T12:42:48;98747.44;;;1.60;73.39
9189;BME280;34313;50.780;6.084;2024-01-16T12:45:15;98737.13;;;1.57;74.19
9189;BME280;34313;50.780;6.084;2024-01-16T12:47:40;98742.69;;;1.72;74.55
9189;BME280;34313;50.780;6.084;2024-01-16T12:50:06;98741.75;;;1.74;73.61
9189;BME280;34313;50.780;6.084;2024-01-16T12:52:31;98740.84;;;1.75;73.97
9189;BME280;34313;50.780;6.084;2024-01-16T12:55:00;98735.34;;;1.84;73.67
9189;BME280;34313;50.780;6.084;2024-01-16T12:57:26;98736.53;;;1.99;73.52
9189;BME280;34313;50.780;6.084;2024-01-16T12:59:51;98734.59;;;2.06;73.50
9189;BME280;34313;50.780;6.084;2024-01-16T13:02:25;98733.06;;;2.00;73.27
9189;BME280;34313;50.780;6.084;2024-01-16T13:05:00;98730.34;;;2.03;73.08
9189;BME280;34313;50.780;6.084;2024-01-16T13:07:29;98721.00;;;1.98;72.54
9189;BME280;34313;50.780;6.084;2024-01-16T13:10:07;98729.91;;;2.16;72.82
9189;BME280;34313;50.780;6.084;2024-01-16T13:12:33;98728.84;;;2.21;71.72
9189;BME280;34313;50.780;6.084;2024-01-16T13:14:59;98726.34;;;2.18;71.84
9189;BME280;34313;50.780;6.084;2024-01-16T13:17:24;98722.84;;;2.19;71.85
9189;BME280;34313;50.780;6.084;2024-01-16T13:19:49;98731.25;;;2.26;71.58